createdAt,value
2023-05-01T00:00:44.430Z,8.00
2023-05-01T00:01:44.394Z,7.89
2023-05-01T00:02:44.461Z,7.83
2023-05-01T00:03:44.509Z,8.00
2023-05-01T00:04:44.343Z,8.00
2023-05-01T00:05:44.325Z,8.00
2023-05-01T00:06:44.360Z,7.89
2023-05-01T00:07:44.265Z,7.74
2023-05-01T00:08:44.234Z,7.92
2023-05-01T00:09:44.202Z,7.98
2023-05-01T00:10:44.170Z,7.87
2023-05-01T00:11:44.141Z,7.88
2023-05-01T00:12:44.120Z,7.91
2023-05-01T00:13:44.113Z,7.92
2023-05-01T00:14:44.063Z,7.89
2023-05-01T00:15:44.038Z,7.83
2023-05-01T00:16:44.068Z,8.05
2023-05-01T00:17:43.989Z,7.78
2023-05-01T00:18:43.950Z,7.85
2023-05-01T00:19:43.909Z,7.75
2023-05-01T00:20:43.886Z,7.76
2023-05-01T00:21:43.848Z,7.73
2023-05-01T00:22:43.823Z,7.63
2023-05-01T00:23:43.791Z,7.67
2023-05-01T00:24:43.768Z,7.64
2023-05-01T00:25:43.732Z,7.57
2023-05-01T00:26:43.720Z,7.60
2023-05-01T00:27:43.691Z,7.68
2023-05-01T00:28:43.667Z,7.48
2023-05-01T00:29:43.637Z,7.66
2023-05-01T00:30:43.604Z,7.51
2023-05-01T00:31:43.619Z,7.39
2023-05-01T00:32:43.583Z,7.42
2023-05-01T00:33:43.520Z,7.51
2023-05-01T00:34:43.494Z,7.49
2023-05-01T00:35:43.473Z,7.50
2023-05-01T00:36:43.451Z,7.41
2023-05-01T00:37:43.414Z,7.44
2023-05-01T00:38:43.384Z,7.44
2023-05-01T00:39:43.352Z,7.45
2023-05-01T00:40:43.341Z,7.36
2023-05-01T00:41:43.304Z,7.28
2023-05-01T00:42:43.279Z,7.41
2023-05-01T00:43:43.248Z,7.32
2023-05-01T00:44:43.222Z,7.36
2023-05-01T00:45:43.258Z,7.35
2023-05-01T00:46:43.183Z,7.28
2023-05-01T00:47:43.197Z,7.32
2023-05-01T00:48:43.128Z,7.27
2023-05-01T00:49:43.110Z,7.30
2023-05-01T00:50:43.112Z,7.17
2023-05-01T00:51:43.098Z,7.25
2023-05-01T00:52:43.059Z,7.25
2023-05-01T00:53:43.020Z,7.27
2023-05-01T00:54:42.993Z,7.19
2023-05-01T00:55:43.000Z,7.32
2023-05-01T00:56:42.949Z,7.35
2023-05-01T00:57:42.934Z,7.36
2023-05-01T00:58:42.892Z,7.34
2023-05-01T00:59:42.864Z,7.20
2023-05-01T01:00:42.844Z,7.23
2023-05-01T01:01:42.892Z,7.24
2023-05-01T01:02:42.823Z,7.08
2023-05-01T01:03:42.782Z,7.18
2023-05-01T01:04:42.805Z,7.17
2023-05-01T01:05:42.701Z,7.18
2023-05-01T01:06:42.818Z,7.20
2023-05-01T01:07:42.657Z,7.19
2023-05-01T01:08:42.621Z,7.19
2023-05-01T01:09:42.584Z,7.34
2023-05-01T01:10:42.590Z,7.17
2023-05-01T01:11:42.535Z,7.08
2023-05-01T01:12:42.520Z,7.04
2023-05-01T01:13:42.510Z,6.98
2023-05-01T01:14:42.475Z,7.01
2023-05-01T01:15:42.443Z,7.02
2023-05-01T01:16:42.427Z,6.96
2023-05-01T01:17:42.432Z,7.02
2023-05-01T01:18:42.359Z,6.89
2023-05-01T01:19:42.340Z,6.90
2023-05-01T01:20:42.340Z,6.93
2023-05-01T01:21:42.289Z,6.96
2023-05-01T01:22:42.279Z,6.93
2023-05-01T01:23:42.274Z,6.83
2023-05-01T01:24:42.251Z,6.82
2023-05-01T01:25:42.184Z,6.85
2023-05-01T01:26:42.150Z,6.89
2023-05-01T01:27:42.121Z,6.89
2023-05-01T01:28:42.092Z,6.77
2023-05-01T01:29:42.060Z,6.88
2023-05-01T01:30:42.075Z,6.76
2023-05-01T01:31:42.068Z,6.81
2023-05-01T01:32:42.006Z,6.81
2023-05-01T01:33:41.942Z,6.76
2023-05-01T01:34:41.922Z,6.70
2023-05-01T01:35:41.908Z,6.69
2023-05-01T01:36:41.895Z,6.65
2023-05-01T01:37:41.899Z,6.50
2023-05-01T01:38:41.932Z,6.73
2023-05-01T01:39:41.879Z,6.69
2023-05-01T01:40:41.884Z,6.67
2023-05-01T01:41:41.873Z,6.59
2023-05-01T01:42:41.869Z,6.53
2023-05-01T01:43:41.869Z,6.63
2023-05-01T01:44:41.865Z,6.55
2023-05-01T01:45:41.850Z,6.52
2023-05-01T01:46:41.864Z,6.55
2023-05-01T01:47:41.996Z,6.50
2023-05-01T01:48:41.847Z,6.46
2023-05-01T01:49:41.831Z,6.52
2023-05-01T01:50:41.833Z,6.46
2023-05-01T01:51:41.821Z,6.33
2023-05-01T01:52:41.830Z,6.29
2023-05-01T01:53:41.827Z,6.29
2023-05-01T01:54:41.825Z,6.48
2023-05-01T01:55:41.823Z,6.19
2023-05-01T01:56:41.818Z,6.29
2023-05-01T01:57:41.811Z,6.32
2023-05-01T01:58:41.815Z,6.29
2023-05-01T01:59:41.808Z,6.27
2023-05-01T02:00:41.879Z,6.25
2023-05-01T02:01:41.926Z,6.31
2023-05-01T02:02:41.882Z,6.14
2023-05-01T02:03:41.912Z,6.19
2023-05-01T02:04:41.821Z,6.16
2023-05-01T02:05:41.812Z,6.14
2023-05-01T02:06:41.861Z,6.08
2023-05-01T02:07:41.820Z,6.11
2023-05-01T02:08:41.812Z,6.06
2023-05-01T02:09:41.810Z,6.14
2023-05-01T02:10:41.827Z,6.10
2023-05-01T02:11:41.809Z,6.05
2023-05-01T02:12:41.828Z,6.11
2023-05-01T02:13:41.827Z,5.97
2023-05-01T02:14:41.802Z,6.02
2023-05-01T02:15:41.849Z,5.98
2023-05-01T02:16:41.955Z,5.95
2023-05-01T02:17:41.816Z,5.98
2023-05-01T02:18:41.815Z,5.84
2023-05-01T02:19:41.871Z,5.83
2023-05-01T02:20:41.826Z,5.89
2023-05-01T02:21:41.815Z,5.86
2023-05-01T02:22:41.804Z,5.82
2023-05-01T02:23:41.809Z,5.80
2023-05-01T02:24:41.795Z,5.76
2023-05-01T02:25:41.820Z,5.73
2023-05-01T02:26:41.808Z,5.70
2023-05-01T02:27:41.842Z,5.81
2023-05-01T02:28:41.807Z,5.75
2023-05-01T02:29:41.834Z,5.70
2023-05-01T02:30:41.824Z,5.73
2023-05-01T02:31:41.867Z,5.77
2023-05-01T02:32:41.863Z,5.53
2023-05-01T02:33:41.815Z,5.61
2023-05-01T02:34:41.823Z,5.67
2023-05-01T02:35:41.850Z,5.57
2023-05-01T02:36:41.836Z,5.68
2023-05-01T02:37:41.822Z,5.72
2023-05-01T02:38:41.837Z,5.54
2023-05-01T02:39:41.950Z,5.53
2023-05-01T02:40:41.849Z,5.57
2023-05-01T02:41:41.849Z,5.54
2023-05-01T02:42:41.852Z,5.53
2023-05-01T02:43:41.843Z,5.54
2023-05-01T02:44:41.868Z,5.51
2023-05-01T02:45:41.869Z,5.49
2023-05-01T02:46:41.846Z,5.43
2023-05-01T02:47:41.863Z,5.54
2023-05-01T02:48:41.844Z,5.47
2023-05-01T02:49:41.843Z,5.54
2023-05-01T02:50:41.848Z,5.44
2023-05-01T02:51:41.856Z,5.46
2023-05-01T02:52:41.854Z,5.41
2023-05-01T02:53:41.869Z,5.39
2023-05-01T02:54:41.875Z,5.38
2023-05-01T02:55:41.861Z,5.38
2023-05-01T02:56:41.842Z,5.40
2023-05-01T02:57:41.812Z,5.39
2023-05-01T02:58:41.783Z,5.39
2023-05-01T02:59:41.762Z,5.41
2023-05-01T03:00:41.730Z,5.23
2023-05-01T03:01:41.796Z,4.33
2023-05-01T03:02:41.723Z,3.55
2023-05-01T03:03:41.760Z,2.85
2023-05-01T03:04:41.741Z,2.27
2023-05-01T03:05:41.642Z,1.88
2023-05-01T03:06:41.786Z,1.52
2023-05-01T03:07:41.570Z,1.25
2023-05-01T03:08:41.551Z,1.01
2023-05-01T03:09:41.528Z,0.81
2023-05-01T03:10:41.522Z,0.68
2023-05-01T03:11:41.543Z,0.56
2023-05-01T03:12:41.470Z,0.49
2023-05-01T03:13:41.490Z,0.50
2023-05-01T03:14:41.489Z,0.49
2023-05-01T03:15:41.512Z,0.50
2023-05-01T03:16:41.660Z,0.50
2023-05-01T03:17:41.575Z,0.50
2023-05-01T03:18:41.566Z,0.50
2023-05-01T03:19:41.567Z,0.50
2023-05-01T03:20:41.556Z,0.50
2023-05-01T03:21:41.565Z,0.50
2023-05-01T03:22:41.546Z,0.50
2023-05-01T03:23:41.537Z,0.50
2023-05-01T03:24:41.530Z,0.50
2023-05-01T03:25:41.524Z,0.50
2023-05-01T03:26:41.538Z,0.51
2023-05-01T03:27:41.517Z,0.50
2023-05-01T03:28:41.512Z,0.50
2023-05-01T03:29:41.518Z,0.50
2023-05-01T03:30:41.521Z,0.50
2023-05-01T03:31:41.558Z,0.50
2023-05-01T03:32:41.549Z,0.51
2023-05-01T03:33:41.534Z,0.51
2023-05-01T03:34:41.545Z,0.51
2023-05-01T03:35:41.605Z,0.50
2023-05-01T03:36:41.559Z,0.51
2023-05-01T03:37:41.549Z,0.49
2023-05-01T03:38:41.523Z,0.49
2023-05-01T03:39:41.512Z,0.49
2023-05-01T03:40:41.474Z,0.47
2023-05-01T03:41:41.470Z,0.47
2023-05-01T03:42:41.452Z,0.50
2023-05-01T03:43:41.410Z,0.51
2023-05-01T03:44:41.389Z,0.51
2023-05-01T03:45:44.254Z,0.50
2023-05-01T03:46:41.414Z,0.50
2023-05-01T03:47:41.375Z,0.50
2023-05-01T03:48:41.319Z,0.50
2023-05-01T03:49:41.297Z,0.51
2023-05-01T03:50:41.289Z,0.51
2023-05-01T03:51:41.263Z,0.51
2023-05-01T03:52:41.246Z,0.51
2023-05-01T03:53:41.215Z,0.52
2023-05-01T03:54:41.218Z,0.52
2023-05-01T03:55:41.184Z,0.52
2023-05-01T03:56:41.172Z,0.50
2023-05-01T03:57:41.158Z,0.51
2023-05-01T03:58:41.127Z,0.50
2023-05-01T03:59:41.104Z,0.50
2023-05-01T04:00:41.088Z,0.51
2023-05-01T04:01:41.116Z,0.50
2023-05-01T04:02:41.133Z,0.51
2023-05-01T04:03:41.205Z,0.52
2023-05-01T04:04:41.123Z,0.51
2023-05-01T04:05:40.997Z,0.51
2023-05-01T04:06:41.096Z,0.50
2023-05-01T04:07:40.964Z,0.50
2023-05-01T04:08:40.940Z,0.50
2023-05-01T04:09:40.918Z,0.50
2023-05-01T04:10:40.903Z,0.51
2023-05-01T04:11:40.872Z,0.53
2023-05-01T04:12:40.855Z,0.53
2023-05-01T04:13:40.844Z,0.51
2023-05-01T04:14:40.808Z,0.51
2023-05-01T04:15:40.871Z,0.54
2023-05-01T04:16:40.894Z,0.51
2023-05-01T04:17:40.897Z,0.51
2023-05-01T04:18:40.861Z,0.51
2023-05-01T04:19:40.866Z,0.52
2023-05-01T04:20:40.871Z,0.52
2023-05-01T04:21:40.887Z,0.55
2023-05-01T04:22:40.874Z,0.55
2023-05-01T04:23:40.875Z,0.56
2023-05-01T04:24:40.868Z,0.57
2023-05-01T04:25:40.899Z,0.57
2023-05-01T04:26:40.864Z,0.57
2023-05-01T04:27:40.855Z,0.57
2023-05-01T04:28:40.813Z,0.54
2023-05-01T04:29:40.804Z,0.54
2023-05-01T04:30:40.791Z,0.55
2023-05-01T04:31:40.775Z,0.53
2023-05-01T04:32:40.816Z,0.53
2023-05-01T04:33:40.724Z,0.53
2023-05-01T04:34:40.689Z,0.53
2023-05-01T04:35:40.697Z,0.52
2023-05-01T04:36:40.659Z,0.52
2023-05-01T04:37:40.660Z,0.52
2023-05-01T04:38:40.630Z,0.51
2023-05-01T04:39:40.622Z,0.51
2023-05-01T04:40:40.652Z,0.53
2023-05-01T04:41:40.672Z,0.50
2023-05-01T04:42:40.661Z,0.51
2023-05-01T04:43:40.686Z,0.53
2023-05-01T04:44:40.722Z,0.56
2023-05-01T04:45:40.738Z,0.54
2023-05-01T04:46:40.827Z,0.56
2023-05-01T04:47:40.874Z,0.57
2023-05-01T04:48:40.812Z,0.58
2023-05-01T04:49:40.819Z,0.56
2023-05-01T04:50:40.856Z,0.57
2023-05-01T04:51:40.908Z,0.58
2023-05-01T04:52:40.904Z,0.57
2023-05-01T04:53:40.901Z,0.58
2023-05-01T04:54:40.908Z,0.57
2023-05-01T04:55:40.908Z,0.56
2023-05-01T04:56:40.896Z,0.56
2023-05-01T04:57:40.900Z,0.55
2023-05-01T04:58:40.880Z,0.54
2023-05-01T04:59:40.881Z,0.52
2023-05-01T05:00:40.865Z,0.52
2023-05-01T05:01:41.003Z,0.50
2023-05-01T05:02:40.938Z,0.51
2023-05-01T05:03:40.943Z,0.51
2023-05-01T05:04:40.845Z,0.51
2023-05-01T05:05:40.844Z,0.51
2023-05-01T05:06:40.922Z,0.50
2023-05-01T05:07:40.821Z,0.51
2023-05-01T05:08:40.830Z,0.52
2023-05-01T05:09:40.811Z,0.51
2023-05-01T05:10:40.810Z,0.50
2023-05-01T05:11:40.789Z,0.50
2023-05-01T05:12:40.767Z,0.50
2023-05-01T05:13:40.758Z,0.50
2023-05-01T05:14:40.735Z,0.51
2023-05-01T05:15:40.721Z,0.51
2023-05-01T05:16:40.779Z,0.51
2023-05-01T05:17:40.726Z,0.51
2023-05-01T05:18:40.693Z,0.51
2023-05-01T05:19:40.665Z,0.51
2023-05-01T05:20:40.650Z,0.51
2023-05-01T05:21:40.661Z,0.50
2023-05-01T05:22:40.640Z,0.53
2023-05-01T05:23:40.630Z,0.50
2023-05-01T05:24:40.621Z,0.50
2023-05-01T05:25:40.602Z,0.51
2023-05-01T05:26:40.608Z,0.50
2023-05-01T05:27:40.578Z,0.51
2023-05-01T05:28:40.560Z,0.50
2023-05-01T05:29:40.576Z,0.51
2023-05-01T05:30:40.544Z,0.51
2023-05-01T05:31:40.573Z,0.50
2023-05-01T05:32:40.531Z,0.50
2023-05-01T05:33:40.517Z,0.51
2023-05-01T05:34:40.489Z,0.50
2023-05-01T05:35:40.480Z,0.50
2023-05-01T05:36:40.489Z,0.51
2023-05-01T05:37:40.460Z,0.50
2023-05-01T05:38:40.452Z,0.51
2023-05-01T05:39:40.433Z,0.50
2023-05-01T05:40:40.439Z,0.52
2023-05-01T05:41:40.429Z,0.51
2023-05-01T05:42:40.404Z,0.50
2023-05-01T05:43:40.393Z,0.51
2023-05-01T05:44:40.357Z,0.51
2023-05-01T05:45:40.406Z,0.52
2023-05-01T05:46:40.513Z,0.52
2023-05-01T05:47:40.380Z,0.51
2023-05-01T05:48:40.308Z,0.51
2023-05-01T05:49:40.305Z,0.50
2023-05-01T05:50:40.303Z,0.52
2023-05-01T05:51:40.284Z,0.51
2023-05-01T05:52:40.272Z,0.51
2023-05-01T05:53:40.274Z,0.51
2023-05-01T05:54:40.258Z,0.52
2023-05-01T05:55:40.249Z,0.52
2023-05-01T05:56:40.259Z,0.52
2023-05-01T05:57:40.224Z,0.54
2023-05-01T05:58:40.217Z,0.54
2023-05-01T05:59:40.197Z,0.54
2023-05-01T06:00:40.187Z,0.55
2023-05-01T06:01:40.189Z,0.54
2023-05-01T06:02:40.230Z,0.55
2023-05-01T06:03:40.271Z,0.53
2023-05-01T06:04:40.127Z,0.54
2023-05-01T06:05:40.240Z,0.54
2023-05-01T06:06:40.178Z,0.52
2023-05-01T06:07:40.100Z,0.52
2023-05-01T06:08:40.068Z,0.51
2023-05-01T06:09:40.073Z,0.52
2023-05-01T06:10:40.032Z,0.51
2023-05-01T06:11:40.039Z,0.51
2023-05-01T06:12:42.964Z,0.50
2023-05-01T06:13:41.004Z,0.50
2023-05-01T06:14:39.975Z,0.50
2023-05-01T06:15:39.997Z,0.50
2023-05-01T06:16:40.010Z,0.51
2023-05-01T06:17:39.985Z,0.50
2023-05-01T06:18:39.916Z,0.51
2023-05-01T06:19:39.915Z,0.51
2023-05-01T06:20:39.910Z,0.50
2023-05-01T06:21:39.891Z,0.51
2023-05-01T06:22:39.881Z,0.50
2023-05-01T06:23:39.874Z,0.51
2023-05-01T06:24:39.889Z,0.51
2023-05-01T06:25:39.837Z,0.50
2023-05-01T06:26:39.844Z,0.51
2023-05-01T06:27:39.830Z,0.52
2023-05-01T06:28:39.795Z,0.51
2023-05-01T06:29:39.799Z,0.51
2023-05-01T06:30:39.770Z,0.51
2023-05-01T06:31:39.837Z,0.51
2023-05-01T06:32:39.753Z,0.51
2023-05-01T06:33:39.743Z,0.51
2023-05-01T06:34:39.748Z,0.51
2023-05-01T06:35:39.701Z,0.50
2023-05-01T06:36:39.780Z,0.51
2023-05-01T06:37:39.719Z,0.51
2023-05-01T06:38:39.696Z,0.51
2023-05-01T06:39:39.674Z,0.51
2023-05-01T06:40:39.683Z,0.52
2023-05-01T06:41:39.644Z,0.51
2023-05-01T06:42:39.649Z,0.51
2023-05-01T06:43:39.617Z,0.52
2023-05-01T06:44:39.627Z,0.52
2023-05-01T06:45:39.612Z,0.53
2023-05-01T06:46:39.630Z,0.54
2023-05-01T06:47:39.563Z,0.55
2023-05-01T06:48:39.551Z,0.55
2023-05-01T06:49:39.529Z,0.56
2023-05-01T06:50:39.535Z,0.56
2023-05-01T06:51:39.514Z,0.54
2023-05-01T06:52:39.503Z,0.54
2023-05-01T06:53:39.493Z,0.57
2023-05-01T06:54:39.472Z,0.57
2023-05-01T06:55:39.465Z,0.57
2023-05-01T06:56:39.433Z,0.56
2023-05-01T06:57:39.436Z,0.57
2023-05-01T06:58:39.402Z,0.56
2023-05-01T06:59:39.421Z,0.56
2023-05-01T07:00:39.521Z,0.56
2023-05-01T07:01:39.398Z,0.57
2023-05-01T07:02:39.443Z,0.56
2023-05-01T07:03:39.388Z,0.56
2023-05-01T07:04:39.347Z,0.56
2023-05-01T07:05:39.308Z,0.56
2023-05-01T07:06:39.338Z,0.55
2023-05-01T07:07:42.468Z,0.57
2023-05-01T07:08:40.270Z,0.57
2023-05-01T07:09:39.246Z,0.57
2023-05-01T07:10:41.802Z,0.57
2023-05-01T07:11:39.229Z,0.57
2023-05-01T07:12:39.246Z,0.55
2023-05-01T07:13:39.202Z,0.56
2023-05-01T07:14:39.186Z,0.57
2023-05-01T07:15:39.158Z,0.57
2023-05-01T07:16:39.202Z,0.56
2023-05-01T07:17:39.151Z,0.56
2023-05-01T07:18:39.127Z,0.56
2023-05-01T07:19:39.087Z,0.53
2023-05-01T07:20:39.093Z,0.54
2023-05-01T07:21:39.065Z,0.54
2023-05-01T07:22:39.062Z,0.54
2023-05-01T07:23:39.039Z,0.52
2023-05-01T07:24:39.069Z,0.53
2023-05-01T07:25:39.005Z,0.52
2023-05-01T07:26:38.981Z,0.51
2023-05-01T07:27:39.240Z,0.51
2023-05-01T07:28:38.944Z,0.51
2023-05-01T07:29:38.943Z,0.51
2023-05-01T07:30:38.919Z,0.51
2023-05-01T07:31:38.942Z,0.50
2023-05-01T07:32:38.969Z,0.51
2023-05-01T07:33:38.866Z,0.52
2023-05-01T07:34:38.840Z,0.50
2023-05-01T07:35:38.849Z,0.51
2023-05-01T07:36:38.850Z,0.52
2023-05-01T07:37:38.810Z,0.52
2023-05-01T07:38:38.790Z,0.53
2023-05-01T07:39:38.777Z,0.53
2023-05-01T07:40:38.755Z,0.55
2023-05-01T07:41:38.746Z,0.55
2023-05-01T07:42:38.731Z,0.56
2023-05-01T07:43:38.718Z,0.58
2023-05-01T07:44:38.693Z,0.59
2023-05-01T07:45:38.694Z,0.59
2023-05-01T07:46:38.758Z,0.61
2023-05-01T07:47:38.687Z,0.61
2023-05-01T07:48:39.152Z,0.59
2023-05-01T07:49:38.603Z,0.59
2023-05-01T07:50:38.590Z,0.59
2023-05-01T07:51:38.570Z,0.54
2023-05-01T07:52:38.602Z,0.53
2023-05-01T07:53:38.556Z,0.50
2023-05-01T07:54:38.557Z,0.50
2023-05-01T07:55:38.541Z,0.51
2023-05-01T07:56:38.515Z,0.51
2023-05-01T07:57:38.480Z,0.51
2023-05-01T07:58:38.488Z,0.50
2023-05-01T07:59:38.435Z,0.50
2023-05-01T08:00:38.426Z,0.50
2023-05-01T08:01:38.403Z,0.51
2023-05-01T08:02:38.489Z,0.51
2023-05-01T08:03:38.590Z,0.52
2023-05-01T08:04:38.437Z,0.50
2023-05-01T08:05:38.449Z,0.50
2023-05-01T08:06:38.537Z,0.50
2023-05-01T08:07:38.471Z,0.50
2023-05-01T08:08:38.463Z,0.50
2023-05-01T08:09:38.462Z,0.50
2023-05-01T08:10:38.502Z,0.50
2023-05-01T08:11:38.472Z,0.50
2023-05-01T08:12:38.466Z,0.50
2023-05-01T08:13:38.464Z,0.52
2023-05-01T08:14:38.475Z,0.50
2023-05-01T08:15:38.515Z,0.50
2023-05-01T08:16:38.691Z,0.51
2023-05-01T08:17:38.593Z,0.51
2023-05-01T08:18:38.507Z,0.50
2023-05-01T08:19:38.485Z,0.50
2023-05-01T08:20:38.564Z,0.50
2023-05-01T08:21:38.514Z,0.50
2023-05-01T08:22:38.530Z,0.50
2023-05-01T08:23:38.488Z,0.50
2023-05-01T08:24:38.481Z,0.50
2023-05-01T08:25:38.456Z,0.50
2023-05-01T08:26:38.455Z,0.50
2023-05-01T08:27:38.458Z,0.51
2023-05-01T08:28:38.424Z,0.50
2023-05-01T08:29:38.398Z,0.50
2023-05-01T08:30:38.401Z,0.50
2023-05-01T08:31:38.375Z,0.50
2023-05-01T08:32:38.387Z,0.49
2023-05-01T08:33:38.328Z,0.51
2023-05-01T08:34:38.330Z,0.52
2023-05-01T08:35:38.303Z,0.51
2023-05-01T08:36:38.360Z,0.51
2023-05-01T08:37:38.301Z,0.51
2023-05-01T08:38:38.280Z,0.51
2023-05-01T08:39:38.271Z,0.50
2023-05-01T08:40:38.270Z,0.50
2023-05-01T08:41:38.257Z,0.52
2023-05-01T08:42:38.254Z,0.51
2023-05-01T08:43:38.278Z,0.51
2023-05-01T08:44:38.279Z,0.51
2023-05-01T08:45:38.381Z,0.51
2023-05-01T08:46:38.388Z,0.52
2023-05-01T08:47:38.495Z,0.50
2023-05-01T08:48:38.404Z,0.51
2023-05-01T08:49:38.397Z,0.50
2023-05-01T08:50:38.389Z,0.50
2023-05-01T08:51:38.369Z,0.50
2023-05-01T08:52:38.361Z,0.50
2023-05-01T08:53:38.330Z,0.51
2023-05-01T08:54:38.326Z,0.50
2023-05-01T08:55:38.313Z,0.51
2023-05-01T08:56:38.304Z,0.50
2023-05-01T08:57:38.290Z,0.52
2023-05-01T08:58:38.562Z,0.52
2023-05-01T08:59:38.246Z,0.53
2023-05-01T09:00:38.236Z,0.53
2023-05-01T09:01:38.326Z,0.55
2023-05-01T09:02:38.308Z,0.57
2023-05-01T09:03:38.458Z,0.63
2023-05-01T09:04:38.385Z,0.70
2023-05-01T09:05:38.415Z,0.80
2023-05-01T09:06:38.469Z,0.88
2023-05-01T09:07:38.444Z,0.89
2023-05-01T09:08:38.406Z,0.91
2023-05-01T09:09:38.384Z,0.99
2023-05-01T09:10:38.380Z,1.17
2023-05-01T09:11:38.356Z,1.59
2023-05-01T09:12:38.323Z,1.89
2023-05-01T09:13:38.295Z,2.16
2023-05-01T09:14:38.266Z,2.45
2023-05-01T09:15:38.253Z,2.73
2023-05-01T09:16:38.296Z,3.09
2023-05-01T09:17:38.206Z,3.36
2023-05-01T09:18:38.163Z,3.81
2023-05-01T09:19:38.152Z,4.33
2023-05-01T09:20:38.128Z,4.83
2023-05-01T09:21:38.103Z,5.34
2023-05-01T09:22:38.067Z,5.94
2023-05-01T09:23:38.036Z,6.73
2023-05-01T09:24:38.045Z,7.56
2023-05-01T09:25:38.005Z,8.44
2023-05-01T09:26:37.973Z,9.17
2023-05-01T09:27:37.945Z,9.98
2023-05-01T09:28:37.935Z,11.07
2023-05-01T09:29:37.946Z,12.44
2023-05-01T09:30:37.892Z,13.21
2023-05-01T09:31:37.898Z,14.79
2023-05-01T09:32:38.262Z,16.14
2023-05-01T09:33:37.814Z,17.19
2023-05-01T09:34:37.813Z,18.85
2023-05-01T09:35:37.882Z,19.99
2023-05-01T09:36:37.857Z,21.75
2023-05-01T09:37:37.880Z,23.44
2023-05-01T09:38:37.915Z,25.07
2023-05-01T09:39:37.953Z,27.68
2023-05-01T09:40:37.990Z,29.03
2023-05-01T09:41:38.024Z,31.29
2023-05-01T09:42:38.041Z,34.76
2023-05-01T09:43:38.065Z,36.80
2023-05-01T09:44:38.080Z,39.48
2023-05-01T09:45:38.153Z,42.86
2023-05-01T09:46:38.209Z,44.88
2023-05-01T09:47:38.252Z,48.70
2023-05-01T09:48:38.281Z,51.36
2023-05-01T09:49:38.316Z,54.99
2023-05-01T09:50:38.355Z,55.25
2023-05-01T09:51:38.408Z,58.87
2023-05-01T09:52:38.466Z,61.45
2023-05-01T09:53:38.493Z,63.74
2023-05-01T09:54:38.581Z,66.34
2023-05-01T09:55:38.577Z,70.64
2023-05-01T09:56:38.593Z,77.45
2023-05-01T09:57:38.647Z,79.56
2023-05-01T09:58:38.683Z,82.58
2023-05-01T09:59:38.732Z,90.57
2023-05-01T10:00:38.763Z,93.11
2023-05-01T10:01:38.900Z,97.10
2023-05-01T10:02:38.920Z,97.28
2023-05-01T10:03:38.996Z,98.12
2023-05-01T10:04:38.734Z,101.07
2023-05-01T10:05:38.722Z,106.43
2023-05-01T10:06:38.974Z,118.41
2023-05-01T10:07:38.680Z,119.94
2023-05-01T10:08:38.648Z,120.66
2023-05-01T10:09:38.639Z,125.11
2023-05-01T10:10:38.610Z,132.01
2023-05-01T10:11:38.591Z,137.58
2023-05-01T10:12:38.562Z,140.67
2023-05-01T10:13:38.547Z,144.00
2023-05-01T10:14:38.569Z,147.52
2023-05-01T10:15:38.597Z,150.46
2023-05-01T10:16:38.729Z,154.24
2023-05-01T10:17:38.745Z,154.39
2023-05-01T10:18:38.705Z,158.63
2023-05-01T10:19:38.698Z,167.50
2023-05-01T10:20:38.748Z,170.72
2023-05-01T10:21:38.783Z,178.15
2023-05-01T10:22:38.787Z,184.02
2023-05-01T10:23:38.793Z,186.97
2023-05-01T10:24:38.826Z,194.38
2023-05-01T10:25:38.847Z,196.66
2023-05-01T10:26:38.861Z,199.38
2023-05-01T10:27:38.883Z,197.43
2023-05-01T10:28:38.924Z,204.71
2023-05-01T10:29:38.947Z,210.27
2023-05-01T10:30:38.948Z,217.36
2023-05-01T10:31:41.514Z,220.50
2023-05-01T10:32:39.032Z,225.06
2023-05-01T10:33:38.891Z,218.29
2023-05-01T10:34:38.877Z,226.24
2023-05-01T10:35:38.865Z,229.83
2023-05-01T10:36:38.826Z,237.00
2023-05-01T10:37:38.835Z,239.80
2023-05-01T10:38:38.776Z,237.82
2023-05-01T10:39:38.996Z,241.08
2023-05-01T10:40:38.746Z,239.45
2023-05-01T10:41:38.714Z,243.25
2023-05-01T10:42:38.674Z,241.22
2023-05-01T10:43:38.635Z,255.15
2023-05-01T10:44:38.631Z,253.19
2023-05-01T10:45:38.586Z,256.37
2023-05-01T10:46:38.596Z,261.13
2023-05-01T10:47:38.566Z,254.41
2023-05-01T10:48:38.519Z,251.00
2023-05-01T10:49:38.496Z,253.12
2023-05-01T10:50:38.475Z,256.28
2023-05-01T10:51:38.440Z,263.53
2023-05-01T10:52:38.443Z,260.80
2023-05-01T10:53:38.417Z,258.24
2023-05-01T10:54:38.379Z,259.95
2023-05-01T10:55:38.365Z,259.72
2023-05-01T10:56:38.351Z,263.84
2023-05-01T10:57:38.320Z,257.16
2023-05-01T10:58:38.278Z,252.93
2023-05-01T10:59:38.268Z,264.54
2023-05-01T11:00:38.239Z,271.59
2023-05-01T11:01:38.323Z,270.98
2023-05-01T11:02:38.247Z,273.46
2023-05-01T11:03:38.191Z,277.84
2023-05-01T11:04:38.138Z,276.07
2023-05-01T11:05:38.786Z,278.55
2023-05-01T11:06:38.305Z,283.94
2023-05-01T11:07:38.077Z,288.87
2023-05-01T11:08:38.047Z,282.12
2023-05-01T11:09:38.076Z,286.36
2023-05-01T11:10:38.012Z,288.38
2023-05-01T11:11:37.983Z,290.75
2023-05-01T11:12:37.973Z,297.18
2023-05-01T11:13:37.935Z,292.71
2023-05-01T11:14:37.918Z,302.70
2023-05-01T11:15:37.888Z,298.88
2023-05-01T11:16:38.249Z,299.98
2023-05-01T11:17:37.871Z,301.80
2023-05-01T11:18:37.804Z,291.68
2023-05-01T11:19:37.781Z,285.30
2023-05-01T11:20:37.730Z,260.67
2023-05-01T11:21:37.719Z,249.39
2023-05-01T11:22:37.681Z,241.85
2023-05-01T11:23:37.646Z,224.25
2023-05-01T11:24:37.623Z,228.04
2023-05-01T11:25:37.585Z,229.84
2023-05-01T11:26:37.554Z,224.31
2023-05-01T11:27:37.595Z,221.20
2023-05-01T11:28:37.502Z,217.65
2023-05-01T11:29:37.491Z,211.26
2023-05-01T11:30:37.453Z,198.72
2023-05-01T11:31:37.496Z,209.57
2023-05-01T11:32:37.435Z,216.20
2023-05-01T11:33:37.380Z,213.81
2023-05-01T11:34:37.364Z,220.27
2023-05-01T11:35:37.359Z,225.43
2023-05-01T11:36:37.346Z,230.92
2023-05-01T11:37:37.344Z,230.53
2023-05-01T11:38:37.330Z,231.84
2023-05-01T11:39:37.331Z,232.06
2023-05-01T11:40:37.301Z,236.39
2023-05-01T11:41:37.301Z,232.06
2023-05-01T11:42:37.324Z,240.30
2023-05-01T11:43:37.282Z,237.04
2023-05-01T11:44:37.236Z,242.82
2023-05-01T11:45:37.549Z,239.10
2023-05-01T11:46:37.233Z,249.01
2023-05-01T11:47:37.195Z,252.21
2023-05-01T11:48:37.163Z,244.34
2023-05-01T11:49:37.141Z,250.96
2023-05-01T11:50:37.137Z,254.78
2023-05-01T11:51:37.096Z,254.01
2023-05-01T11:52:37.083Z,252.55
2023-05-01T11:53:37.081Z,252.53
2023-05-01T11:54:37.090Z,262.69
2023-05-01T11:55:37.058Z,258.97
2023-05-01T11:56:37.082Z,261.66
2023-05-01T11:57:37.098Z,262.84
2023-05-01T11:58:37.087Z,263.29
2023-05-01T11:59:37.051Z,263.95
2023-05-01T12:00:37.083Z,265.35
2023-05-01T12:01:37.011Z,268.22
2023-05-01T12:02:37.074Z,276.63
2023-05-01T12:03:37.017Z,277.48
2023-05-01T12:04:36.958Z,270.00
2023-05-01T12:05:36.982Z,273.56
2023-05-01T12:06:36.933Z,270.14
2023-05-01T12:07:36.833Z,271.35
2023-05-01T12:08:36.860Z,266.62
2023-05-01T12:09:36.907Z,264.44
2023-05-01T12:10:36.925Z,268.92
2023-05-01T12:11:36.933Z,268.82
2023-05-01T12:12:36.944Z,263.84
2023-05-01T12:13:36.990Z,265.16
2023-05-01T12:14:36.990Z,266.97
2023-05-01T12:15:37.024Z,265.60
2023-05-01T12:16:37.054Z,262.77
2023-05-01T12:17:37.109Z,260.09
2023-05-01T12:18:37.090Z,260.20
2023-05-01T12:19:37.103Z,261.86
2023-05-01T12:20:37.128Z,265.71
2023-05-01T12:21:37.166Z,261.06
2023-05-01T12:22:37.205Z,256.60
2023-05-01T12:23:37.277Z,259.49
2023-05-01T12:24:37.292Z,264.51
2023-05-01T12:25:37.328Z,263.71
2023-05-01T12:26:37.358Z,260.28
2023-05-01T12:27:37.416Z,260.97
2023-05-01T12:28:37.418Z,263.91
2023-05-01T12:29:37.447Z,259.24
2023-05-01T12:30:37.478Z,257.52
2023-05-01T12:31:37.568Z,260.92
2023-05-01T12:32:37.552Z,254.37
2023-05-01T12:33:37.588Z,260.93
2023-05-01T12:34:37.600Z,259.49
2023-05-01T12:35:37.634Z,261.19
2023-05-01T12:36:37.717Z,264.20
2023-05-01T12:37:37.699Z,257.21
2023-05-01T12:38:37.748Z,257.50
2023-05-01T12:39:37.761Z,262.41
2023-05-01T12:40:37.808Z,262.46
2023-05-01T12:41:37.829Z,257.39
2023-05-01T12:42:37.848Z,261.25
2023-05-01T12:43:37.887Z,261.40
2023-05-01T12:44:37.922Z,258.96
2023-05-01T12:45:37.927Z,259.65
2023-05-01T12:46:37.985Z,253.76
2023-05-01T12:47:38.000Z,253.97
2023-05-01T12:48:38.033Z,255.46
2023-05-01T12:49:38.050Z,253.33
2023-05-01T12:50:38.053Z,253.69
2023-05-01T12:51:38.105Z,253.86
2023-05-01T12:52:38.120Z,250.20
2023-05-01T12:53:38.141Z,248.58
2023-05-01T12:54:38.216Z,246.94
2023-05-01T12:55:38.177Z,252.21
2023-05-01T12:56:38.189Z,251.73
2023-05-01T12:57:38.157Z,251.81
2023-05-01T12:58:38.439Z,251.78
2023-05-01T12:59:38.113Z,250.70
2023-05-01T13:00:38.075Z,249.78
2023-05-01T13:01:38.168Z,247.50
2023-05-01T13:02:38.064Z,247.59
2023-05-01T13:03:40.176Z,238.07
2023-05-01T13:04:37.965Z,246.93
2023-05-01T13:05:37.945Z,242.65